createdAt,value
2018-05-04T00:03:54.593Z,69.89
2018-05-04T00:06:22.355Z,69.89
2018-05-04T00:08:59.244Z,69.95
2018-05-04T00:14:03.961Z,69.92
2018-05-04T00:16:31.752Z,69.72
2018-05-04T00:18:59.533Z,69.74
2018-05-04T00:21:37.021Z,69.68
2018-05-04T00:26:43.506Z,69.68
2018-05-04T00:29:11.268Z,69.78
2018-05-04T00:31:39.095Z,69.76
2018-05-04T00:34:16.630Z,69.62
2018-05-04T00:36:44.550Z,69.59
2018-05-04T00:39:12.348Z,69.69
2018-05-04T00:41:40.231Z,69.72
2018-05-04T00:44:17.391Z,69.78
2018-05-04T00:49:22.658Z,69.70
2018-05-04T00:51:50.532Z,69.79
2018-05-04T00:54:24.348Z,69.87
2018-05-04T00:56:57.152Z,69.89
2018-05-04T01:02:02.699Z,69.80
2018-05-04T01:04:30.504Z,69.76
2018-05-04T01:06:58.379Z,69.90
2018-05-04T01:09:28.464Z,69.94
2018-05-04T01:11:58.594Z,69.99
2018-05-04T01:14:27.289Z,70.23
2018-05-04T01:16:56.006Z,70.05
2018-05-04T01:19:24.162Z,70.19
2018-05-04T01:21:52.421Z,70.25
2018-05-04T01:24:20.816Z,70.19
2018-05-04T01:26:49.095Z,70.35
2018-05-04T01:29:18.210Z,70.57
2018-05-04T01:31:48.147Z,70.32
2018-05-04T01:34:17.431Z,70.23
2018-05-04T01:36:47.624Z,70.19
2018-05-04T01:39:16.445Z,70.13
2018-05-04T01:41:44.708Z,70.25
2018-05-04T01:44:13.952Z,70.40
2018-05-04T01:46:43.019Z,70.08
2018-05-04T01:49:12.272Z,70.07
2018-05-04T01:51:40.817Z,70.17
2018-05-04T01:54:08.960Z,70.34
2018-05-04T01:56:37.975Z,70.23
2018-05-04T01:59:07.203Z,70.14
2018-05-04T02:01:36.595Z,70.13
2018-05-04T02:17:05.677Z,71.12
2018-05-04T02:19:33.908Z,71.26
2018-05-04T02:22:02.966Z,71.47
2018-05-04T02:24:32.815Z,71.46
2018-05-04T02:27:03.506Z,71.68
2018-05-04T02:29:31.468Z,71.87
2018-05-04T02:32:00.475Z,71.76
2018-05-04T02:34:30.372Z,71.79
2018-05-04T02:36:59.771Z,72.04
2018-05-04T02:39:28.914Z,71.92
2018-05-04T02:41:58.110Z,71.88
2018-05-04T02:44:27.569Z,71.82
2018-05-04T02:46:55.909Z,72.05
2018-05-04T02:49:24.362Z,72.07
2018-05-04T02:51:53.493Z,72.14
2018-05-04T02:54:22.537Z,72.15
2018-05-04T02:56:52.788Z,72.14
2018-05-04T02:59:21.122Z,71.97
2018-05-04T03:01:51.157Z,72.65
2018-05-04T03:04:21.322Z,72.61
2018-05-04T03:06:50.527Z,72.34
2018-05-04T03:09:20.702Z,72.31
2018-05-04T03:11:49.828Z,72.15
2018-05-04T03:14:18.424Z,72.29
2018-05-04T03:16:46.916Z,72.13
2018-05-04T03:19:15.168Z,72.07
2018-05-04T03:21:43.671Z,72.08
2018-05-04T03:24:13.089Z,72.38
2018-05-04T03:26:41.324Z,72.17
2018-05-04T03:29:10.979Z,72.45
2018-05-04T03:31:40.262Z,72.73
2018-05-04T03:34:08.652Z,72.61
2018-05-04T03:36:37.136Z,72.88
2018-05-04T03:39:07.153Z,72.72
2018-05-04T03:41:36.358Z,72.50
2018-05-04T03:44:08.012Z,72.65
2018-05-04T03:46:37.209Z,72.60
2018-05-04T03:49:06.437Z,72.80
2018-05-04T03:51:35.632Z,72.82
2018-05-04T03:54:04.823Z,72.71
2018-05-04T03:56:35.270Z,72.78
2018-05-04T03:59:15.293Z,72.88
2018-05-04T04:26:31.043Z,72.52
2018-05-04T04:29:00.083Z,72.22
2018-05-04T04:31:29.320Z,72.10
2018-05-04T04:33:58.252Z,72.19
2018-05-04T04:36:27.503Z,72.34
2018-05-04T04:38:55.990Z,72.34
2018-05-04T04:41:26.439Z,72.32
2018-05-04T04:43:55.782Z,72.35
2018-05-04T04:46:24.917Z,72.36
2018-05-04T04:48:53.980Z,72.26
2018-05-04T04:51:23.304Z,72.48
2018-05-04T04:53:52.725Z,72.20
2018-05-04T04:56:22.805Z,72.32
2018-05-04T04:58:53.039Z,72.23
2018-05-04T05:01:21.579Z,72.29
2018-05-04T05:03:50.751Z,72.51
2018-05-04T05:06:19.359Z,72.38
2018-05-04T05:08:47.836Z,72.49
2018-05-04T05:11:17.835Z,72.43
2018-05-04T05:13:47.817Z,72.67
2018-05-04T05:16:24.209Z,72.60
2018-05-04T05:18:52.644Z,72.60
2018-05-04T05:21:21.114Z,72.69
2018-05-04T05:23:50.202Z,72.61
2018-05-04T05:26:20.232Z,72.64
2018-05-04T05:28:50.216Z,72.77
2018-05-04T05:31:19.005Z,72.87
2018-05-04T05:33:47.393Z,72.49
2018-05-04T05:36:16.460Z,72.78
2018-05-04T05:38:45.117Z,72.47
2018-05-04T05:41:14.393Z,72.42
2018-05-04T05:43:43.666Z,72.21
2018-05-04T05:46:12.300Z,72.15
2018-05-04T05:48:41.488Z,72.04
2018-05-04T05:51:11.301Z,71.96
2018-05-04T05:53:41.310Z,71.53
2018-05-04T05:56:11.609Z,71.00
2018-05-04T05:58:41.003Z,70.86
2018-05-04T06:01:09.936Z,70.14
2018-05-04T06:03:39.172Z,69.91
2018-05-04T06:06:09.149Z,70.29
2018-05-04T06:08:37.637Z,70.62
2018-05-04T06:11:06.737Z,70.49
2018-05-04T06:13:36.552Z,69.77
2018-05-04T06:16:05.241Z,69.60
2018-05-04T06:18:34.045Z,69.26
2018-05-04T06:21:02.785Z,69.79
2018-05-04T06:23:31.419Z,69.68
2018-05-04T06:26:00.096Z,68.87
2018-05-04T06:28:29.423Z,69.04
2018-05-04T06:30:58.994Z,69.24
2018-05-04T06:33:28.062Z,68.83
2018-05-04T06:35:56.488Z,68.76
2018-05-04T06:38:25.901Z,68.87
2018-05-04T06:40:55.116Z,68.80
2018-05-04T06:43:23.506Z,68.58
2018-05-04T06:45:52.996Z,68.80
2018-05-04T06:48:22.101Z,69.20
2018-05-04T06:50:50.550Z,68.48
2018-05-04T06:53:20.442Z,68.01
2018-05-04T06:55:48.861Z,68.04
2018-05-04T06:58:17.991Z,68.40
2018-05-04T07:00:47.175Z,68.40
2018-05-04T07:03:16.357Z,68.15
2018-05-04T07:05:45.357Z,67.90
2018-05-04T07:08:14.202Z,67.97
2018-05-04T07:10:49.793Z,67.48
2018-05-04T07:13:19.983Z,68.24
2018-05-04T07:15:48.436Z,67.67
2018-05-04T07:18:17.024Z,67.96
2018-05-04T07:20:46.421Z,67.69
2018-05-04T07:23:15.919Z,67.92
2018-05-04T07:25:45.013Z,67.73
2018-05-04T07:28:14.133Z,67.37
2018-05-04T07:30:42.931Z,67.39
2018-05-04T07:33:11.571Z,67.02
2018-05-04T07:35:42.983Z,67.19
2018-05-04T07:38:11.856Z,67.37
2018-05-04T07:40:41.025Z,66.18
2018-05-04T07:43:11.136Z,66.17
2018-05-04T07:45:40.257Z,65.99
2018-05-04T07:48:09.266Z,66.06
2018-05-04T07:50:38.281Z,66.02
2018-05-04T07:53:06.728Z,65.73
2018-05-04T07:55:39.010Z,65.29
2018-05-04T07:58:07.620Z,65.48
2018-05-04T08:00:36.643Z,65.93
2018-05-04T08:03:05.402Z,65.36
2018-05-04T08:05:35.316Z,65.24
2018-05-04T08:08:04.474Z,64.94
2018-05-04T08:10:33.739Z,64.70
2018-05-04T08:13:02.712Z,64.95
2018-05-04T08:15:31.203Z,64.82
2018-05-04T08:17:59.725Z,65.19
2018-05-04T08:20:28.991Z,65.61
2018-05-04T08:22:58.299Z,65.54
2018-05-04T08:25:27.527Z,64.91
2018-05-04T08:27:56.465Z,65.44
2018-05-04T08:30:25.578Z,65.43
2018-05-04T08:32:53.697Z,65.28
2018-05-04T08:35:22.363Z,64.51
2018-05-04T08:37:50.842Z,63.93
2018-05-04T08:40:19.550Z,64.34
2018-05-04T08:42:47.386Z,63.31
2018-05-04T08:45:15.759Z,62.70
2018-05-04T08:47:45.109Z,63.15
2018-05-04T08:50:13.998Z,63.07
2018-05-04T08:52:43.197Z,63.05
2018-05-04T08:55:12.709Z,62.76
2018-05-04T08:57:41.819Z,62.85
2018-05-04T09:00:12.598Z,62.91
2018-05-04T09:02:41.129Z,62.53
2018-05-04T09:05:09.647Z,62.48
2018-05-04T09:07:38.729Z,62.67
2018-05-04T09:10:07.777Z,63.03
2018-05-04T09:12:36.889Z,62.10
2018-05-04T09:15:05.234Z,62.76
2018-05-04T09:17:34.450Z,62.45
2018-05-04T09:20:03.552Z,62.49
2018-05-04T09:22:36.429Z,62.16
2018-05-04T09:25:07.300Z,62.42
2018-05-04T09:27:37.868Z,63.02
2018-05-04T09:30:07.036Z,63.10
2018-05-04T09:32:36.499Z,62.47
2018-05-04T09:35:04.849Z,62.44
2018-05-04T09:37:34.096Z,61.86
2018-05-04T09:40:03.108Z,62.69
2018-05-04T09:42:32.337Z,62.13
2018-05-04T09:45:00.736Z,62.51
2018-05-04T09:47:31.053Z,62.10
2018-05-04T09:50:01.050Z,61.86
2018-05-04T09:52:32.808Z,61.15
2018-05-04T09:55:01.116Z,62.66
2018-05-04T09:57:30.211Z,62.37
2018-05-04T09:59:59.306Z,62.90
2018-05-04T10:02:29.385Z,62.10
2018-05-04T10:04:58.660Z,61.19
2018-05-04T10:07:28.774Z,61.73
2018-05-04T10:09:57.954Z,61.17
2018-05-04T10:12:26.203Z,60.92
2018-05-04T10:14:55.512Z,62.15
2018-05-04T10:17:23.902Z,61.61
2018-05-04T10:19:52.990Z,60.89
2018-05-04T10:22:22.196Z,60.27
2018-05-04T10:24:54.857Z,61.04
2018-05-04T10:27:23.486Z,60.80
2018-05-04T10:29:54.121Z,60.37
2018-05-04T10:32:22.723Z,60.47
2018-05-04T10:34:51.305Z,60.38
2018-05-04T10:37:19.537Z,60.76
2018-05-04T10:39:48.994Z,60.60
2018-05-04T10:42:20.626Z,62.77
2018-05-04T10:44:49.488Z,60.15
2018-05-04T10:47:19.031Z,60.77
2018-05-04T10:49:48.264Z,58.96
2018-05-04T10:52:17.523Z,58.87
2018-05-04T10:54:47.923Z,59.21
2018-05-04T10:57:16.577Z,59.62
2018-05-04T10:59:45.639Z,59.34
2018-05-04T11:02:16.047Z,59.64
2018-05-04T11:04:45.097Z,59.62
2018-05-04T11:07:13.567Z,58.42
2018-05-04T11:09:43.692Z,59.10
2018-05-04T11:12:14.953Z,57.73
2018-05-04T11:14:44.356Z,58.84
2018-05-04T11:17:13.306Z,58.87
2018-05-04T11:19:42.634Z,56.68
2018-05-04T11:22:11.132Z,56.25
2018-05-04T11:24:39.735Z,55.54
2018-05-04T11:27:08.922Z,55.45
2018-05-04T11:29:38.117Z,56.38
2018-05-04T11:32:07.113Z,55.98
2018-05-04T11:34:36.271Z,56.22
2018-05-04T11:37:05.041Z,56.05
2018-05-04T11:39:35.814Z,56.64
2018-05-04T11:42:04.190Z,56.96
2018-05-04T11:44:33.657Z,56.13
2018-05-04T11:47:02.940Z,55.66
2018-05-04T11:49:32.556Z,55.25
2018-05-04T11:52:01.135Z,55.35
2018-05-04T11:54:29.557Z,54.46
2018-05-04T11:56:58.315Z,54.94
2018-05-04T11:59:26.672Z,55.39
2018-05-04T12:01:56.000Z,54.78
2018-05-04T12:04:26.758Z,55.39
2018-05-04T12:06:55.846Z,53.60
2018-05-04T12:09:24.586Z,53.38
2018-05-04T12:11:54.585Z,53.84
2018-05-04T12:14:23.952Z,53.44
2018-05-04T12:16:53.901Z,54.21
2018-05-04T12:19:23.419Z,53.49
2018-05-04T12:21:52.581Z,52.89
2018-05-04T12:24:21.037Z,53.10
2018-05-04T12:26:49.136Z,52.48
2018-05-04T12:29:17.751Z,52.65
2018-05-04T12:31:46.168Z,52.76
2018-05-04T12:34:15.185Z,53.18
2018-05-04T12:36:43.626Z,53.25
2018-05-04T12:39:13.545Z,53.08
2018-05-04T12:41:42.698Z,53.65
2018-05-04T12:44:11.795Z,53.79
2018-05-04T12:46:40.913Z,53.48
2018-05-04T12:49:10.054Z,54.08
2018-05-04T12:51:40.941Z,53.33
2018-05-04T12:54:10.090Z,52.81
2018-05-04T12:56:38.682Z,52.08
2018-05-04T12:59:08.776Z,51.90
2018-05-04T13:01:37.966Z,52.31
2018-05-04T13:04:07.163Z,51.85
2018-05-04T13:06:36.162Z,52.25
2018-05-04T13:09:05.855Z,51.97
2018-05-04T13:11:35.629Z,51.46
2018-05-04T13:14:05.631Z,51.62
2018-05-04T13:16:33.995Z,51.59
2018-05-04T13:19:03.312Z,50.55
2018-05-04T13:21:33.494Z,52.43
2018-05-04T13:24:02.127Z,50.95
2018-05-04T13:26:31.519Z,49.74
2018-05-04T13:29:00.623Z,48.02
2018-05-04T13:31:30.146Z,48.41
2018-05-04T13:33:59.234Z,49.80
2018-05-04T13:36:28.284Z,48.97
2018-05-04T13:38:57.306Z,50.13
2018-05-04T13:41:26.764Z,50.37
2018-05-04T13:43:58.611Z,50.04
2018-05-04T13:46:27.792Z,48.58
2018-05-04T13:48:58.067Z,48.57
2018-05-04T13:51:26.658Z,49.18
2018-05-04T13:53:56.635Z,48.74
2018-05-04T13:56:27.252Z,48.67
2018-05-04T13:58:55.950Z,48.02
2018-05-04T14:01:25.159Z,48.21
2018-05-04T14:03:54.133Z,48.01
2018-05-04T14:06:23.269Z,48.95
2018-05-04T14:08:51.723Z,47.89
2018-05-04T14:11:21.132Z,47.75
2018-05-04T14:13:50.831Z,48.38
2018-05-04T14:16:20.359Z,49.14
2018-05-04T14:18:49.604Z,47.97
2018-05-04T14:21:19.898Z,49.32
2018-05-04T14:23:51.139Z,48.63
2018-05-04T14:26:19.715Z,49.71
2018-05-04T14:28:48.832Z,49.80
2018-05-04T14:31:18.334Z,50.68
2018-05-04T14:33:47.647Z,49.90
2018-05-04T14:36:16.630Z,49.13
2018-05-04T14:38:46.607Z,49.95
2018-05-04T14:41:15.682Z,50.45
2018-05-04T14:43:44.254Z,51.31
2018-05-04T14:46:12.646Z,51.34
2018-05-04T14:48:43.707Z,51.87
2018-05-04T14:51:14.193Z,50.54
2018-05-04T14:53:43.667Z,50.48
2018-05-04T14:56:13.800Z,50.04
2018-05-04T14:58:43.503Z,50.66
2018-05-04T15:01:12.637Z,50.37
2018-05-04T15:03:43.681Z,49.59
2018-05-04T15:06:11.811Z,48.49
2018-05-04T15:08:40.627Z,47.83
2018-05-04T15:11:09.764Z,48.26
2018-05-04T15:13:38.951Z,49.29
2018-05-04T15:16:07.246Z,50.04
2018-05-04T15:18:35.704Z,50.94
2018-05-04T15:21:06.427Z,49.83
2018-05-04T15:23:36.602Z,49.06
2018-05-04T15:26:05.653Z,48.30
2018-05-04T15:28:35.711Z,47.98
2018-05-04T15:31:04.183Z,48.63
2018-05-04T15:33:34.902Z,49.98
2018-05-04T15:36:05.099Z,50.70
2018-05-04T15:38:36.282Z,51.45
2018-05-04T15:41:05.684Z,51.66
2018-05-04T15:43:34.974Z,51.97
2018-05-04T15:46:04.304Z,51.45
2018-05-04T15:48:38.173Z,51.72
2018-05-04T15:51:11.772Z,53.50
2018-05-04T15:53:40.825Z,54.23
2018-05-04T15:56:10.179Z,55.40
2018-05-04T15:58:38.816Z,55.90
2018-05-04T16:01:07.188Z,56.88
2018-05-04T16:03:36.371Z,57.47
2018-05-04T16:06:04.883Z,57.45
2018-05-04T16:08:34.358Z,57.79
2018-05-04T16:11:03.496Z,57.60
2018-05-04T16:13:32.616Z,58.42
2018-05-04T16:16:02.750Z,57.84
2018-05-04T16:18:31.236Z,57.91
2018-05-04T16:20:59.773Z,58.18
2018-05-04T16:23:28.974Z,57.95
2018-05-04T16:25:57.814Z,58.51
2018-05-04T16:28:27.272Z,58.79
2018-05-04T16:30:56.822Z,58.67
2018-05-04T16:33:25.273Z,58.80
2018-05-04T16:35:53.741Z,59.03
2018-05-04T16:38:22.868Z,59.62
2018-05-04T16:40:51.498Z,59.61
2018-05-04T16:43:19.842Z,59.69
2018-05-04T16:45:49.479Z,59.61
2018-05-04T16:48:24.262Z,59.93
2018-05-04T16:50:53.223Z,60.51
2018-05-04T16:53:22.776Z,61.23
2018-05-04T16:55:53.205Z,61.82
2018-05-04T16:58:24.324Z,61.82
2018-05-04T17:00:52.927Z,61.31
2018-05-04T17:03:21.950Z,61.43
2018-05-04T17:05:51.437Z,61.31
2018-05-04T17:08:20.338Z,61.37
2018-05-04T17:10:49.437Z,61.39
2018-05-04T17:13:18.775Z,61.95
2018-05-04T17:15:47.930Z,61.54
2018-05-04T17:18:16.505Z,61.87
2018-05-04T17:20:45.734Z,61.81
2018-05-04T17:23:15.306Z,61.62
2018-05-04T17:25:43.858Z,62.30
2018-05-04T17:28:13.809Z,61.71
2018-05-04T17:30:43.281Z,62.24
2018-05-04T17:33:12.235Z,62.44
2018-05-04T17:35:41.222Z,62.17
2018-05-04T17:38:10.264Z,62.66
2018-05-04T17:40:38.944Z,62.64
2018-05-04T17:43:07.372Z,62.22
2018-05-04T17:45:35.794Z,62.74
2018-05-04T17:48:05.219Z,63.11
2018-05-04T17:50:35.197Z,62.79
2018-05-04T17:53:04.437Z,62.51
2018-05-04T17:55:33.214Z,62.76
2018-05-04T17:58:03.343Z,62.70
2018-05-04T18:00:33.331Z,63.69
2018-05-04T18:03:02.019Z,63.24
2018-05-04T18:05:31.396Z,63.26
2018-05-04T18:08:02.396Z,63.43
2018-05-04T18:10:32.689Z,63.46
2018-05-04T18:13:02.709Z,63.35
2018-05-04T18:15:31.621Z,63.22
2018-05-04T18:18:01.887Z,63.49
2018-05-04T18:20:31.098Z,63.36
2018-05-04T18:22:59.770Z,63.21
2018-05-04T18:25:28.938Z,63.26
2018-05-04T18:27:58.959Z,63.32
2018-05-04T18:30:27.243Z,63.57
2018-05-04T18:32:55.948Z,63.53
2018-05-04T18:35:25.374Z,63.73
2018-05-04T18:37:54.324Z,63.70
2018-05-04T18:40:22.804Z,63.87
2018-05-04T18:42:52.830Z,64.36
2018-05-04T18:45:21.215Z,64.37
2018-05-04T18:47:49.750Z,64.61
2018-05-04T18:50:19.029Z,65.11
2018-05-04T18:52:47.453Z,64.83
2018-05-04T18:55:15.946Z,64.70
2018-05-04T18:57:47.234Z,64.68
2018-05-04T19:00:17.451Z,64.68
2018-05-04T19:02:51.915Z,64.90
2018-05-04T19:05:20.963Z,64.84
2018-05-04T19:07:50.103Z,65.15
2018-05-04T19:10:19.240Z,65.26
2018-05-04T19:12:48.672Z,65.60
2018-05-04T19:15:17.906Z,65.43
2018-05-04T19:17:46.362Z,65.64
2018-05-04T19:20:15.294Z,66.46
2018-05-04T19:22:44.338Z,67.01
2018-05-04T19:25:15.211Z,66.96
2018-05-04T19:27:44.301Z,66.96
2018-05-04T19:30:13.303Z,67.43
2018-05-04T19:32:42.713Z,67.61
2018-05-04T19:35:13.431Z,67.29
2018-05-04T19:37:41.880Z,67.18
2018-05-04T19:40:12.268Z,67.77
2018-05-04T19:42:41.860Z,68.17
2018-05-04T19:45:12.291Z,68.33
2018-05-04T19:47:41.894Z,68.48
2018-05-04T19:50:11.444Z,68.12
2018-05-04T19:52:39.915Z,67.76
2018-05-04T19:55:09.332Z,67.62
2018-05-04T19:57:38.820Z,67.68
2018-05-04T20:00:08.003Z,68.09
2018-05-04T20:02:36.388Z,68.29
2018-05-04T20:05:05.723Z,68.38
2018-05-04T20:07:35.004Z,69.04
2018-05-04T20:10:03.669Z,68.94
2018-05-04T20:12:32.465Z,69.58
2018-05-04T20:15:00.866Z,69.72
2018-05-04T20:17:30.803Z,70.00
2018-05-04T20:19:59.894Z,70.02
2018-05-04T20:22:28.695Z,70.09
2018-05-04T20:24:57.767Z,70.10
2018-05-04T20:27:26.024Z,69.91
2018-05-04T20:29:54.823Z,69.83
2018-05-04T20:32:23.357Z,70.63
2018-05-04T20:34:51.831Z,70.40
2018-05-04T20:37:20.996Z,70.29
2018-05-04T20:39:50.329Z,70.32
2018-05-04T20:42:19.401Z,70.82
2018-05-04T20:44:49.459Z,71.29
2018-05-04T20:47:18.767Z,70.98
2018-05-04T20:49:47.599Z,71.00
2018-05-04T20:52:15.980Z,70.65
2018-05-04T20:54:45.041Z,70.91
2018-05-04T20:57:15.458Z,71.45
2018-05-04T20:59:44.305Z,71.67
2018-05-04T21:02:12.846Z,71.93
2018-05-04T21:04:41.839Z,71.84
2018-05-04T21:07:11.541Z,72.13
2018-05-04T21:09:40.322Z,72.18
2018-05-04T21:12:08.481Z,72.35
2018-05-04T21:14:36.683Z,71.99
2018-05-04T21:17:04.976Z,72.07
2018-05-04T21:19:33.041Z,71.74
2018-05-04T21:22:02.146Z,71.09
2018-05-04T21:24:31.757Z,70.23
2018-05-04T21:27:00.410Z,69.17
2018-05-04T21:29:29.854Z,68.72
2018-05-04T21:32:00.692Z,67.91
2018-05-04T21:34:29.679Z,67.62
2018-05-04T21:36:58.959Z,66.71
2018-05-04T21:39:28.309Z,66.22
2018-05-04T21:41:57.529Z,65.84
2018-05-04T21:44:26.699Z,65.28
2018-05-04T21:46:55.908Z,64.93
2018-05-04T21:49:25.114Z,64.92
2018-05-04T21:51:53.585Z,64.68
2018-05-04T21:54:22.893Z,64.37
2018-05-04T21:56:52.519Z,64.21
2018-05-04T21:59:20.849Z,64.20
2018-05-04T22:01:50.047Z,63.95
2018-05-04T22:04:19.382Z,63.69
2018-05-04T22:06:47.870Z,63.54
2018-05-04T22:09:16.903Z,63.44
2018-05-04T22:11:46.676Z,63.42
2018-05-04T22:14:14.994Z,63.26
2018-05-04T22:16:44.269Z,63.14
2018-05-04T22:19:14.087Z,63.27
2018-05-04T22:21:43.880Z,63.27
2018-05-04T22:24:12.047Z,63.47
2018-05-04T22:26:41.865Z,63.58
2018-05-04T22:29:10.681Z,63.57
2018-05-04T22:31:39.476Z,63.74
2018-05-04T22:34:07.761Z,63.82
2018-05-04T22:36:39.095Z,63.86
2018-05-04T22:39:08.079Z,63.96
2018-05-04T22:41:38.060Z,63.97
2018-05-04T22:44:07.007Z,63.87
2018-05-04T22:46:36.224Z,64.06
2018-05-04T22:49:05.232Z,64.09
2018-05-04T22:51:33.602Z,63.77
2018-05-04T22:54:02.097Z,63.97
2018-05-04T22:56:30.508Z,63.86
2018-05-04T22:59:00.653Z,63.96
2018-05-04T23:01:30.587Z,64.01
2018-05-04T23:04:01.461Z,64.09
2018-05-04T23:06:30.867Z,64.35
2018-05-04T23:09:00.881Z,64.53
2018-05-04T23:11:28.945Z,64.55
2018-05-04T23:13:59.174Z,64.88
2018-05-04T23:16:29.299Z,65.14
2018-05-04T23:19:00.079Z,65.26
2018-05-04T23:21:28.561Z,65.54
2018-05-04T23:23:57.922Z,65.58
2018-05-04T23:26:27.127Z,65.72
2018-05-04T23:28:55.487Z,65.72
2018-05-04T23:31:24.573Z,66.10
2018-05-04T23:33:52.433Z,65.91
2018-05-04T23:36:20.651Z,65.89
2018-05-04T23:38:49.239Z,66.15
2018-05-04T23:41:17.563Z,66.05
2018-05-04T23:43:45.601Z,66.26
2018-05-04T23:46:14.598Z,66.24
2018-05-04T23:48:42.412Z,66.29
2018-05-04T23:51:12.408Z,66.39
2018-05-04T23:53:41.838Z,66.40
2018-05-04T23:56:10.644Z,66.45
2018-05-04T23:58:39.186Z,66.68
